createdAt,value
2018-07-22T00:04:32.887Z,15.1
2018-07-22T00:10:27.906Z,16.37
2018-07-22T00:16:22.899Z,11.24
2018-07-22T00:22:17.910Z,11.94
2018-07-22T00:28:12.907Z,15.69
2018-07-22T00:34:07.918Z,19.52
2018-07-22T00:40:02.929Z,12.04
2018-07-22T00:45:57.916Z,14.5
2018-07-22T00:51:52.917Z,9.63
2018-07-22T00:57:47.936Z,10.08
2018-07-22T01:03:42.915Z,11.74
2018-07-22T01:09:37.948Z,11.68
2018-07-22T01:15:32.965Z,11.17
2018-07-22T01:21:27.927Z,12.9
2018-07-22T01:27:22.950Z,9.13
2018-07-22T01:33:17.967Z,10.06
2018-07-22T01:39:12.994Z,12.31
2018-07-22T01:45:07.984Z,12.29
2018-07-22T01:51:02.950Z,11.79
2018-07-22T01:56:57.987Z,14.33
2018-07-22T02:02:53.001Z,13.54
2018-07-22T02:08:47.974Z,12.23
2018-07-22T02:14:42.978Z,10.94
2018-07-22T02:20:37.981Z,13.07
2018-07-22T02:26:32.996Z,13.55
2018-07-22T02:32:27.984Z,12.26
2018-07-22T02:38:23.024Z,16.35
2018-07-22T02:44:18.003Z,10.88
2018-07-22T02:50:12.984Z,9.6
2018-07-22T02:56:08.008Z,8.28
2018-07-22T03:02:03.042Z,7.62
2018-07-22T03:07:58.019Z,9.92
2018-07-22T03:13:53.065Z,8.05
2018-07-22T03:19:48.017Z,10.97
2018-07-22T03:25:43.021Z,7.54
2018-07-22T03:31:38.021Z,10.12
2018-07-22T03:37:33.051Z,13.3
2018-07-22T03:43:28.056Z,9.2
2018-07-22T03:49:23.026Z,12.15
2018-07-22T03:55:18.037Z,12.17
2018-07-22T04:01:13.025Z,8.23
2018-07-22T04:07:08.065Z,9.88
2018-07-22T04:13:03.036Z,11.2
2018-07-22T04:18:58.074Z,14.98
2018-07-22T04:24:53.063Z,12.3
2018-07-22T04:30:48.071Z,11.63
2018-07-22T04:36:43.069Z,11.92
2018-07-22T04:42:38.090Z,12.61
2018-07-22T04:48:33.079Z,9.18
2018-07-22T04:54:28.111Z,11.69
2018-07-22T05:00:23.081Z,23.28
2018-07-22T05:06:18.109Z,82.58
2018-07-22T05:12:13.127Z,64.75
2018-07-22T05:18:08.085Z,47.29
2018-07-22T05:24:03.118Z,37.94
2018-07-22T05:29:58.113Z,38.25
2018-07-22T05:35:53.084Z,21.72
2018-07-22T05:41:48.093Z,25.61
2018-07-22T05:47:43.100Z,24.25
2018-07-22T05:53:38.117Z,17.21
2018-07-22T05:59:33.103Z,19.14
2018-07-22T06:05:28.132Z,12.39
2018-07-22T06:11:23.121Z,12.63
2018-07-22T06:17:18.134Z,16.4
2018-07-22T06:23:13.136Z,17.81
2018-07-22T06:29:08.184Z,12.48
2018-07-22T06:35:03.123Z,14
2018-07-22T06:40:58.135Z,13.14
2018-07-22T06:46:53.130Z,12.88
2018-07-22T06:52:48.156Z,23.1
2018-07-22T06:58:43.163Z,11.4
2018-07-22T07:04:38.167Z,7.36
2018-07-22T07:10:33.158Z,5.54
2018-07-22T07:16:28.153Z,7.31
2018-07-22T07:22:23.161Z,6.62
2018-07-22T07:28:18.173Z,4.45
2018-07-22T07:34:13.197Z,6.76
2018-07-22T07:40:08.183Z,4.63
2018-07-22T07:46:03.170Z,5.1
2018-07-22T07:51:58.177Z,4.84
2018-07-22T07:57:53.191Z,3.51
2018-07-22T08:03:48.239Z,5.1
2018-07-22T08:09:43.199Z,4.1
2018-07-22T08:15:38.194Z,4.86
2018-07-22T08:21:33.285Z,4.49
2018-07-22T08:27:28.204Z,3.32
2018-07-22T08:33:23.253Z,2.1
2018-07-22T08:39:18.229Z,4.59
2018-07-22T08:45:13.251Z,4.5
2018-07-22T08:51:08.238Z,4.64
2018-07-22T08:57:03.213Z,4.87
2018-07-22T09:02:58.260Z,2.9
2018-07-22T09:08:53.261Z,8.17
2018-07-22T09:14:48.274Z,3.39
2018-07-22T09:20:43.216Z,4.18
2018-07-22T09:26:38.226Z,5.95
2018-07-22T09:32:33.246Z,3.74
2018-07-22T09:38:28.287Z,3.66
2018-07-22T09:44:23.283Z,7.41
2018-07-22T09:50:18.258Z,6.05
2018-07-22T09:56:13.258Z,10.81
2018-07-22T10:02:08.288Z,10.44
2018-07-22T10:08:03.243Z,14.93
2018-07-22T10:13:58.264Z,15.88
2018-07-22T10:19:53.279Z,8.57
2018-07-22T10:25:48.280Z,13.73
2018-07-22T10:31:43.256Z,10.87
2018-07-22T10:37:38.325Z,12.17
2018-07-22T10:43:33.317Z,11.18
2018-07-22T10:49:28.283Z,10.48
2018-07-22T10:55:23.278Z,10.67
2018-07-22T11:01:18.339Z,9.24
2018-07-22T11:07:13.310Z,15.17
2018-07-22T11:13:08.286Z,16.96
2018-07-22T11:19:03.343Z,16.55
2018-07-22T11:24:58.319Z,11.79
2018-07-22T11:30:53.363Z,10.09
2018-07-22T11:36:48.347Z,7.09
2018-07-22T11:42:43.390Z,7.9
2018-07-22T11:48:38.317Z,11.59
2018-07-22T11:54:33.351Z,7.42
2018-07-22T12:00:28.329Z,9.01
2018-07-22T12:06:23.339Z,6.79
2018-07-22T12:12:18.335Z,6.56
2018-07-22T12:18:13.332Z,9.67
2018-07-22T12:24:08.392Z,7.14
2018-07-22T12:30:03.348Z,8.86
2018-07-22T12:35:58.396Z,6.64
2018-07-22T12:41:53.374Z,8.33
2018-07-22T12:47:48.399Z,5.63
2018-07-22T12:53:43.386Z,6.6
2018-07-22T12:59:38.360Z,7.83
2018-07-22T13:05:33.385Z,8.12
2018-07-22T13:11:28.370Z,10.43
2018-07-22T13:17:23.381Z,12.04
2018-07-22T13:23:18.406Z,14.3
2018-07-22T13:29:13.376Z,9.14
2018-07-22T13:35:08.382Z,8.45
2018-07-22T13:41:03.414Z,10.6
2018-07-22T13:46:58.386Z,6.52
2018-07-22T13:52:53.392Z,5.92
2018-07-22T13:58:48.398Z,5.81
2018-07-22T14:04:43.439Z,5.79
2018-07-22T14:10:38.423Z,7.66
2018-07-22T14:16:33.433Z,9.65
2018-07-22T14:22:28.431Z,6.75
2018-07-22T14:28:23.428Z,4.3
2018-07-22T14:34:18.464Z,6.42
2018-07-22T14:40:13.458Z,5.48
2018-07-22T14:46:08.472Z,6.14
2018-07-22T14:52:03.451Z,5.31
2018-07-22T14:57:58.435Z,3.7
2018-07-22T15:03:53.466Z,7.57
2018-07-22T15:09:48.445Z,4.18
2018-07-22T15:15:43.442Z,6.4
2018-07-22T15:21:38.452Z,5.23
2018-07-22T15:27:33.510Z,5.54
2018-07-22T15:33:28.464Z,6.58
2018-07-22T15:39:23.519Z,7.68
2018-07-22T15:45:18.485Z,5.96
2018-07-22T15:51:13.462Z,6.59
2018-07-22T15:57:08.505Z,6.25
2018-07-22T16:03:03.527Z,3.77
2018-07-22T16:08:58.512Z,4.35
2018-07-22T16:14:53.483Z,10.4
2018-07-22T16:20:48.490Z,6.69
2018-07-22T16:26:43.490Z,11.35
2018-07-22T16:32:38.494Z,7.37
2018-07-22T16:38:33.488Z,5.36
2018-07-22T16:44:28.520Z,8.73
2018-07-22T16:50:23.510Z,5.76
2018-07-22T16:56:18.512Z,10.43
2018-07-22T17:02:13.506Z,7.92
2018-07-22T17:08:08.552Z,10.37
2018-07-22T17:14:03.518Z,13.87
2018-07-22T17:19:58.550Z,14.14
2018-07-22T17:25:53.527Z,8.19
2018-07-22T17:31:48.560Z,8.33
2018-07-22T17:37:43.539Z,10.66
2018-07-22T17:43:38.545Z,12.07
2018-07-22T17:49:33.593Z,11.9
2018-07-22T17:55:28.551Z,7.96
2018-07-22T18:01:23.537Z,9.91
2018-07-22T18:07:18.557Z,12.34
2018-07-22T18:13:13.546Z,12.85
2018-07-22T18:19:08.578Z,10.33
2018-07-22T18:25:03.583Z,10.78
2018-07-22T18:30:58.609Z,14.85
2018-07-22T18:36:53.595Z,15.85
2018-07-22T18:42:48.571Z,13.8
2018-07-22T18:48:43.649Z,12.49
2018-07-22T18:54:38.594Z,12.33
2018-07-22T19:00:33.599Z,14.49
2018-07-22T19:06:28.583Z,13.42
2018-07-22T19:12:23.605Z,11.82
2018-07-22T19:18:18.603Z,13.57
2018-07-22T19:24:13.611Z,12.84
2018-07-22T19:30:08.645Z,11.16
2018-07-22T19:36:03.625Z,14.17
2018-07-22T19:41:58.604Z,12.36
2018-07-22T19:47:53.671Z,11.19
2018-07-22T19:53:48.608Z,17.81
2018-07-22T19:59:43.612Z,14.78
2018-07-22T20:05:38.630Z,15.01
2018-07-22T20:11:33.651Z,12.58
2018-07-22T20:17:28.685Z,13.03
2018-07-22T20:23:23.641Z,15.24
2018-07-22T20:29:18.679Z,11.62
2018-07-22T20:35:13.661Z,15.1
2018-07-22T20:41:08.660Z,10.72
2018-07-22T20:47:03.716Z,11.97
2018-07-22T20:52:58.664Z,20.21
2018-07-22T20:58:53.646Z,19.86
2018-07-22T21:04:48.671Z,9.15
2018-07-22T21:10:43.670Z,12.12
2018-07-22T21:16:38.658Z,12.37
2018-07-22T21:22:33.669Z,15.04
2018-07-22T21:28:28.686Z,17.37
2018-07-22T21:34:23.699Z,12.77
2018-07-22T21:40:18.758Z,28.97
2018-07-22T21:46:13.674Z,15.08
2018-07-22T21:52:08.692Z,17.36
2018-07-22T21:58:03.720Z,15.76
2018-07-22T22:03:58.730Z,16.48
2018-07-22T22:09:53.722Z,13.63
2018-07-22T22:15:48.710Z,12.82
2018-07-22T22:21:43.702Z,15.29
2018-07-22T22:27:38.777Z,12.58
2018-07-22T22:33:33.706Z,12.55
2018-07-22T22:39:28.828Z,12.87
2018-07-22T22:45:23.766Z,15.53
2018-07-22T22:51:18.846Z,14.24
2018-07-22T22:57:13.723Z,13.15
2018-07-22T23:03:08.741Z,12.35
2018-07-22T23:09:03.755Z,15.73
2018-07-22T23:14:58.748Z,10.8
2018-07-22T23:20:53.731Z,13.2
2018-07-22T23:26:48.799Z,14.27
2018-07-22T23:32:43.753Z,13.2
2018-07-22T23:38:38.779Z,14.56
2018-07-22T23:44:33.775Z,19.54
2018-07-22T23:50:28.801Z,14.65
2018-07-22T23:56:23.795Z,16.09
